Central Oregon RPC :: LAKEVIEW, OR B3

liberation: 2021-05-29  06:30     latitude: 42.211122     longitude: -120.355558 138 birds
# LOFT PRING MILES ARRIVAL SPEED ToWin
1 ROCKY TOP AU18-CORP-3371 145.004 2021-05-29 09:21:32.443 1487.739 00:00:00
2 STEELE LOFT AU20-CORP-5080 152.432 2021-05-29 09:30:56.244 1482.723 00:00:37
3 STEELE LOFT AU19-CORP-4007 152.432 2021-05-29 09:30:57.963 1482.489 00:00:38
4 ROCKY TOP AU19-CORP-4474 145.004 2021-05-29 09:23:34.484 1470.305 00:02:02
5 ROCKY TOP AU19-CORP-4400 145.004 2021-05-29 09:24:10.669 1465.214 00:02:38
6 ROCKY TOP AU19-CORP-4435 145.004 2021-05-29 09:24:18.787 1464.077 00:02:46
7 ROCKY TOP AU19-CORP-4473 145.004 2021-05-29 09:24:21.237 1463.734 00:02:49
8 ROCKY TOP AU19-CORP-4405 145.004 2021-05-29 09:24:29.435 1462.587 00:02:57
9 STEELE LOFT AU19-CORP-4008 152.432 2021-05-29 09:33:25.992 1462.549 00:03:06
10 STEELE LOFT AU19-CORP-4006 152.432 2021-05-29 09:33:41.877 1460.442 00:03:22
11 ROCKY TOP AU20-CORP-4476 145.004 2021-05-29 09:24:47.283 1460.098 00:03:15
12 TOPIGEONUSA AU19-CORP-5134 152.123 2021-05-29 09:33:43.152 1457.310 00:03:45
13 AMERICAN LOFT AU19-CORP-4699 148.79 2021-05-29 09:29:50.066 1456.177 00:03:49
14 TOPIGEONUSA AU19-CORP-4907 152.123 2021-05-29 09:34:12.189 1453.481 00:04:14
15 LUCAS CRAMER AU19-LKC-4674 169.348 2021-05-29 09:55:04.283 1453.410 00:04:44
16 TOPIGEONUSA AU20-CORP-4373 152.123 2021-05-29 09:34:14.813 1453.136 00:04:17
17 LUCAS CRAMER AU20-CORP-4245 169.348 2021-05-29 09:55:11.912 1452.509 00:04:52
18 LUCAS CRAMER AU20-AA-11668 169.348 2021-05-29 09:55:14.349 1452.222 00:04:54
19 STEELE LOFT AU19-CORP-4035 152.432 2021-05-29 09:35:27.869 1446.531 00:05:08
20 STEELE LOFT AU20-CORP-5088 152.432 2021-05-29 09:35:30.215 1446.226 00:05:11
21 STEELE LOFT AU19-CORP-4039 152.432 2021-05-29 09:35:32.290 1445.957 00:05:13
22 STEELE LOFT AU19-CORP-4024 152.432 2021-05-29 09:35:34.115 1445.720 00:05:14
23 STEELE LOFT AU20-CORP-5011 152.432 2021-05-29 09:35:36.785 1445.373 00:05:17
24 ROCKY TOP AU19-ARPU-29012 145.004 2021-05-29 09:26:38.311 1444.802 00:05:06
25 TIM GRAVES AU13-TCW-3849 143.484 2021-05-29 09:24:50.306 1444.377 00:05:06
26 LUCAS CRAMER AU19-CORP-4110 169.348 2021-05-29 09:56:22.337 1444.248 00:06:02
27 RUETER FAMILY LOFT AU20-CORP-4566 178.741 2021-05-29 10:07:59.106 1443.142 00:06:32
28 LUCAS CRAMER AU18-CORP-2201 169.348 2021-05-29 09:56:53.435 1440.630 00:06:33
29 RUETER FAMILY LOFT AU20-CORP-4574 178.741 2021-05-29 10:08:23.310 1440.476 00:06:56
30 RUETER FAMILY LOFT AU20-CORP-4527 178.741 2021-05-29 10:08:52.632 1437.260 00:07:26
31 TIM GRAVES AU17-SWWR-7335 143.484 2021-05-29 09:25:52.311 1435.890 00:06:08
32 TIM GRAVES AU15-CORP-3096 143.484 2021-05-29 09:25:52.419 1435.875 00:06:08
33 TOPIGEONUSA AU20-CORP-4868 152.123 2021-05-29 09:36:47.294 1433.365 00:06:50
34 TOPIGEONUSA AU18-CORP-4253 152.123 2021-05-29 09:36:47.406 1433.351 00:06:50
35 TOPIGEONUSA AU19-CORP-5124 152.123 2021-05-29 09:36:50.093 1433.007 00:06:52
36 TOPIGEONUSA AU19-CORP-4991 152.123 2021-05-29 09:36:53.671 1432.550 00:06:56
37 TOPIGEONUSA AU17-CAPT-0054 152.123 2021-05-29 09:37:16.273 1429.669 00:07:19
38 STEELE LOFT AU20-CORP-5034 152.432 2021-05-29 09:37:47.085 1428.658 00:07:27
39 ROCKY TOP AU17-OTC-0317 145.004 2021-05-29 09:28:47.319 1427.427 00:07:15
40 ROCKY TOP AU19-CORP-4477 145.004 2021-05-29 09:28:57.276 1426.103 00:07:25
41 STEELE LOFT AU20-CORP-5002 152.432 2021-05-29 09:38:07.685 1426.050 00:07:48
42 AMERICAN LOFT AU19-CORP-4665 148.79 2021-05-29 09:33:50.460 1424.442 00:07:49
43 ROCKY TOP AU19-CORP-4454 145.004 2021-05-29 09:29:10.926 1424.293 00:07:38
44 AMERICAN LOFT AU19-CORP-4605 148.79 2021-05-29 09:33:55.298 1423.818 00:07:54
45 STEELE LOFT AU20-CORP-5032 152.432 2021-05-29 09:38:33.531 1422.793 00:08:14
46 STEELE LOFT AU20-CORP-5043 152.432 2021-05-29 09:38:34.438 1422.678 00:08:15
47 STEELE LOFT AU19-AVI-19525 152.432 2021-05-29 09:38:46.030 1421.222 00:08:26
48 ROCKY TOP AU18-CORP-3313 145.004 2021-05-29 09:29:44.855 1419.812 00:08:12
49 ROCKY TOP AU18-CORP-3351 145.004 2021-05-29 09:29:48.956 1419.272 00:08:17
50 TOPIGEONUSA AU19-CORP-5136 152.123 2021-05-29 09:38:40.802 1418.994 00:08:43
51 STEELE LOFT AU20-CORP-5017 152.432 2021-05-29 09:39:04.803 1418.871 00:08:45
52 TOPIGEONUSA AU20-CORP-4333 152.123 2021-05-29 09:38:57.275 1416.932 00:09:00
53 LUCAS CRAMER AU20-CALA-0003 169.348 2021-05-29 10:01:11.116 1411.333 00:10:51
54 LUCAS CRAMER AU20-GWC-0059 169.348 2021-05-29 10:01:19.725 1410.375 00:10:59
55 LUCAS CRAMER AU20-ARPU-22504 169.348 2021-05-29 10:01:24.214 1409.876 00:11:04
56 LUCAS CRAMER AU20-ARPU-30169 169.348 2021-05-29 10:01:26.420 1409.631 00:11:06
57 RUETER FAMILY LOFT AU19-CORP-5438 178.741 2021-05-29 10:13:15.123 1409.096 00:11:48
58 RUETER FAMILY LOFT AU19-CORP-5367 178.741 2021-05-29 10:13:21.224 1408.454 00:11:54
59 ROCKY TOP AU18-CORP-3300 145.004 2021-05-29 09:31:30.302 1406.064 00:09:58
60 TOPIGEONUSA AU20-CORP-4377 152.123 2021-05-29 09:42:20.653 1391.962 00:12:23
61 STEELE LOFT AU19-CORP-4022 152.432 2021-05-29 09:42:57.720 1390.326 00:12:38
62 ROCKY TOP AU17-CORP-0798 145.004 2021-05-29 09:33:35.984 1390.022 00:12:04
63 RUETER FAMILY LOFT AU19-CORP-5447 178.741 2021-05-29 10:16:29.073 1388.984 00:15:02
64 STEELE LOFT AU20-CORP-5041 152.432 2021-05-29 09:43:33.944 1385.990 00:13:14
65 LUCAS CRAMER AU20-ARPU-56021 169.348 2021-05-29 10:05:25.723 1383.533 00:15:05
66 AMERICAN LOFT AU19-CORP-4647 148.79 2021-05-29 09:39:57.024 1378.628 00:13:56
67 TIM GRAVES AU16-CORP-6702 143.484 2021-05-29 09:33:19.178 1377.553 00:13:35
68 LUCAS CRAMER AU20-TBW-20080 169.348 2021-05-29 10:06:23.317 1377.396 00:16:03
69 TOPIGEONUSA AU20-CORP-4375 152.123 2021-05-29 09:44:41.063 1375.230 00:14:43
70 LUCAS CRAMER AU20-ZA-7650 169.348 2021-05-29 10:06:54.141 1374.133 00:16:34
71 LUCAS CRAMER AU20-PUEB-20507 169.348 2021-05-29 10:07:17.450 1371.677 00:16:57
72 ROCKY TOP AU18-CORP-3353 145.004 2021-05-29 09:36:25.779 1368.923 00:14:53
73 AMERICAN LOFT AU19-CORP-4746 148.79 2021-05-29 09:41:29.379 1367.546 00:15:28
74 AMERICAN LOFT AU19-CORP-4745 148.79 2021-05-29 09:41:30.960 1367.358 00:15:30
75 AMERICAN LOFT AU19-CORP-4735 148.79 2021-05-29 09:41:33.467 1367.059 00:15:32
76 ROCKY TOP AU16-CORP-7701 145.004 2021-05-29 09:38:19.997 1355.086 00:16:48
77 RUETER FAMILY LOFT AU19-CORP-5310 178.741 2021-05-29 10:22:35.670 1352.498 00:21:09
78 LUCAS CRAMER AU20-GUTZ-0219 169.348 2021-05-29 10:10:59.562 1348.700 00:20:39
79 AMERICAN LOFT AU19-CORP-4706 148.79 2021-05-29 09:44:15.149 1348.095 00:18:14
80 AMERICAN LOFT AU19-CORP-4681 148.79 2021-05-29 09:44:22.351 1347.263 00:18:21
81 AMERICAN LOFT AU19-CORP-4654 148.79 2021-05-29 09:44:22.738 1347.218 00:18:22
82 AMERICAN LOFT AU19-CORP-4635 148.79 2021-05-29 09:44:28.702 1346.529 00:18:28
83 AMERICAN LOFT AU19-CORP-4774 148.79 2021-05-29 09:44:31.685 1346.185 00:18:31
84 LUCAS CRAMER AU19-LKC-4663 169.348 2021-05-29 10:11:47.561 1343.835 00:21:27
85 LUCAS CRAMER AU20-GRPC-0547 169.348 2021-05-29 10:11:50.720 1343.516 00:21:30
86 LUCAS CRAMER AU20-KFLY-2005 169.348 2021-05-29 10:11:52.719 1343.314 00:21:32
87 AMERICAN LOFT AU19-CORP-4711 148.79 2021-05-29 09:45:17.691 1340.900 00:19:17
88 RUETER FAMILY LOFT AU18-CORP-2684 178.741 2021-05-29 10:25:01.512 1338.510 00:23:34
89 AMERICAN LOFT AU19-CORP-4673 148.79 2021-05-29 09:46:47.158 1330.739 00:20:46
90 TIM GRAVES AU16-AUB-0602 143.484 2021-05-29 09:43:29.426 1305.143 00:23:45
91 RUETER FAMILY LOFT AU19-CORP-5377 178.741 2021-05-29 10:31:31.762 1302.465 00:30:05
92 TOPIGEONUSA AU19-CORP-4938 152.123 2021-05-29 09:56:28.375 1296.711 00:26:31
93 ROCKY TOP AU18-CORP-3343 145.004 2021-05-29 09:46:49.696 1296.601 00:25:17
94 LUCAS CRAMER AU20-PLAT-18413 169.348 2021-05-29 10:21:56.138 1285.067 00:31:36
95 LUCAS CRAMER AU20-NEM-0634 169.348 2021-05-29 10:22:05.965 1284.160 00:31:46
96 TOPIGEONUSA AU18-CORP-4205 152.123 2021-05-29 09:58:32.164 1283.882 00:28:34
97 STEELE LOFT AU20-CORP-5012 152.432 2021-05-29 09:59:16.129 1281.988 00:28:56
98 AMERICAN LOFT AU16-CORP-7539 148.79 2021-05-29 09:55:21.320 1275.208 00:29:20
99 AMERICAN LOFT AU19-CORP-4652 148.79 2021-05-29 09:55:30.685 1274.240 00:29:30
100 RUETER FAMILY LOFT AU18-CORP-2744 178.741 2021-05-29 10:38:33.421 1265.639 00:37:06
101 LUCAS CRAMER AU20-GSWC-0755 169.348 2021-05-29 10:26:29.853 1260.278 00:36:09
102 AMERICAN LOFT AU19-CORP-4643 148.79 2021-05-29 09:58:24.036 1256.574 00:32:23
103 TOPIGEONUSA AU20-CORP-4325 152.123 2021-05-29 10:03:11.787 1255.817 00:33:14
104 RUETER FAMILY LOFT AU19-CORP-5330 178.741 2021-05-29 10:44:22.816 1236.666 00:42:56
105 TIM GRAVES AU17-CORP-2034 143.484 2021-05-29 09:54:41.919 1233.680 00:34:57
106 RUETER FAMILY LOFT AU20-CORP-4579 178.741 2021-05-29 10:46:23.875 1226.935 00:44:57
107 RUETER FAMILY LOFT AU19-CORP-5455 178.741 2021-05-29 10:46:54.333 1224.510 00:45:27
108 RUETER FAMILY LOFT AU20-CORP-4635 178.741 2021-05-29 10:47:28.388 1221.811 00:46:01
109 TOPIGEONUSA AU16-CORP-7994 152.123 2021-05-29 10:12:17.970 1204.392 00:42:20
110 RUETER FAMILY LOFT AU20-CORP-4580 178.741 2021-05-29 10:52:33.127 1198.175 00:51:06
111 LUCAS CRAMER AU17-CORP-1074 169.348 2021-05-29 10:38:48.392 1197.930 00:48:28
112 LUCAS CRAMER AU18-CORP-2247 169.348 2021-05-29 10:40:15.697 1190.965 00:49:55
113 LUCAS CRAMER AU20-WPC-1528 169.348 2021-05-29 10:40:18.600 1190.734 00:49:58
114 RUETER FAMILY LOFT AU19-CORP-5456 178.741 2021-05-29 10:56:06.125 1182.191 00:54:39
115 TOPIGEONUSA AU19-CORP-5140 152.123 2021-05-29 10:16:40.484 1181.145 00:46:43
116 TOPIGEONUSA AU20-CORP-4830 152.123 2021-05-29 10:20:53.814 1159.547 00:50:56
117 AMERICAN LOFT AU19-CORP-4708 148.79 2021-05-29 10:21:04.146 1133.301 00:55:03
118 AMERICAN LOFT AU19-CORP-4638 148.79 2021-05-29 10:28:26.007 1098.297 01:02:25
119 RUETER FAMILY LOFT AU19-CORP-5477 178.741 2021-05-29 11:20:04.913 1084.464 01:18:38
120 TOPIGEONUSA AU20-CORP-4324 152.123 2021-05-29 10:40:31.278 1068.715 01:10:34
121 LUCAS CRAMER CU20-CRPU-11568 169.348 2021-05-29 11:16:02.791 1041.973 01:25:42
122 LUCAS CRAMER AU20-HADJ-0025 169.348 2021-05-29 11:16:59.996 1038.512 01:26:40
123 RUETER FAMILY LOFT AU19-CORP-5432 178.741 2021-05-29 11:36:51.535 1025.173 01:35:24
124 AMERICAN LOFT AU19-CORP-4751 148.79 2021-05-29 10:48:08.002 1014.479 01:22:07
125 TIM GRAVES AU19-CORP-4239 143.484 2021-05-29 10:43:54.542 994.579 01:24:10
126 TOPIGEONUSA AU20-CORP-4372 152.123 2021-05-29 11:15:48.039 936.792 01:45:50
127 TOPIGEONUSA AU20-CORP-5027 152.123 2021-05-29 11:15:50.162 936.676 01:45:52
128 RUETER FAMILY LOFT AU20-CORP-4683 178.741 2021-05-29 12:31:49.287 869.444 02:30:22
129 AMERICAN LOFT AU19-CORP-4698 148.79 2021-05-29 11:45:37.873 829.673 02:19:37
130 LUCAS CRAMER AU20-LIAN-2034 169.348 2021-05-29 13:21:03.115 725.098 03:30:43
131 STEELE LOFT AU19-CORP-4004 152.432 2021-05-29 13:28:22.665 641.239 03:58:03
132 RUETER FAMILY LOFT AU19-CORP-5250 178.741 2021-05-29 18:03:40.651 453.501 08:02:14
133 RUETER FAMILY LOFT AU20-OTC-110 178.741 2021-05-30 06:45:07.618 322.332 12:44:31
134 RUETER FAMILY LOFT AU19-CORP-5413 178.741 2021-05-30 09:06:50.529 281.462 15:06:14
135 AMERICAN LOFT AU19-CORP-4683 148.79 2021-05-30 06:01:31.806 280.868 12:36:21
136 TIM GRAVES AU14-CORP-1963 143.484 2021-05-30 09:28:32.069 221.643 16:09:37
STEELE LOFT AU19-CORP-4009 0 0000-00-00 00:00:00.000 0.000 00:00:00
TOPIGEONUSA AU18-CORP-3173 0 0000-00-00 00:00:00.000 0.000 00:00:00